createdAt,value
2022-09-06T00:03:07.789Z,0
2022-09-06T00:09:27.719Z,0
2022-09-06T00:15:50.753Z,0
2022-09-06T00:22:10.752Z,0
2022-09-06T00:28:33.722Z,0
2022-09-06T00:34:53.719Z,0
2022-09-06T00:41:16.756Z,0
2022-09-06T00:47:36.726Z,0
2022-09-06T00:53:59.763Z,0
2022-09-06T01:00:19.736Z,0
2022-09-06T01:06:42.740Z,0
2022-09-06T01:13:02.765Z,0
2022-09-06T01:19:25.722Z,0
2022-09-06T01:25:45.749Z,0
2022-09-06T01:32:08.722Z,0
2022-09-06T01:38:28.756Z,0
2022-09-06T01:44:51.736Z,0
2022-09-06T01:51:11.734Z,0
2022-09-06T01:57:34.755Z,0
2022-09-06T02:03:54.714Z,0
2022-09-06T02:10:17.749Z,0
2022-09-06T02:16:37.819Z,0
2022-09-06T02:23:00.723Z,0
2022-09-06T02:29:20.749Z,0
2022-09-06T02:35:43.724Z,0
2022-09-06T02:42:03.731Z,0
2022-09-06T02:48:26.769Z,0
2022-09-06T02:54:46.725Z,0
2022-09-06T03:01:09.813Z,0
2022-09-06T03:07:29.715Z,0
2022-09-06T03:13:52.735Z,0
2022-09-06T03:20:12.745Z,0
2022-09-06T03:26:35.722Z,0
2022-09-06T03:32:55.759Z,0
2022-09-06T03:39:18.725Z,0
2022-09-06T03:45:38.829Z,0
2022-09-06T03:52:01.734Z,0
2022-09-06T03:58:21.783Z,0
2022-09-06T04:14:31.717Z,0
2022-09-06T04:20:51.804Z,0
2022-09-06T04:27:14.735Z,0
2022-09-06T04:33:34.834Z,0
2022-09-06T04:39:57.752Z,0
2022-09-06T04:46:17.880Z,0
2022-09-06T04:52:40.727Z,0
2022-09-06T04:59:00.728Z,0
2022-09-06T05:05:23.755Z,0
2022-09-06T05:11:43.719Z,0
2022-09-06T05:18:06.780Z,5.62
2022-09-06T05:24:26.747Z,5.62
2022-09-06T05:30:49.763Z,5.62
2022-09-06T05:37:09.752Z,11.25
2022-09-06T05:43:32.735Z,11.25
2022-09-06T05:49:52.768Z,11.25
2022-09-06T05:56:15.726Z,11.25
2022-09-06T06:02:35.818Z,11.25
2022-09-06T06:08:58.750Z,11.25
2022-09-06T06:15:18.760Z,16.88
2022-09-06T06:21:41.793Z,16.88
2022-09-06T06:28:01.745Z,16.88
2022-09-06T06:34:24.782Z,16.88
2022-09-06T06:40:44.751Z,16.88
2022-09-06T06:47:07.734Z,22.5
2022-09-06T06:53:27.761Z,22.5
2022-09-06T06:59:50.733Z,22.5
2022-09-06T07:06:10.924Z,22.5
2022-09-06T07:12:33.750Z,22.5
2022-09-06T07:18:53.750Z,28.12
2022-09-06T07:25:21.126Z,28.12
2022-09-06T07:37:59.879Z,28.12
2022-09-06T07:44:19.764Z,28.12
2022-09-06T07:57:02.773Z,33.75
2022-09-06T08:03:25.744Z,33.75
2022-09-06T08:09:45.769Z,39.38
2022-09-06T08:16:08.814Z,39.38
2022-09-06T08:22:28.736Z,39.38
2022-09-06T08:28:51.735Z,45
2022-09-06T08:35:11.900Z,45
2022-09-06T08:41:34.760Z,45
2022-09-06T08:47:54.728Z,50.62
2022-09-06T08:54:17.771Z,50.62
2022-09-06T09:00:37.765Z,56.25
2022-09-06T09:07:00.774Z,56.25
2022-09-06T09:13:21.759Z,56.25
2022-09-06T09:19:44.727Z,61.88
2022-09-06T09:26:04.799Z,61.88
2022-09-06T09:32:27.734Z,67.5
2022-09-06T09:38:47.762Z,67.5
2022-09-06T09:54:58.703Z,67.5
2022-09-06T10:01:18.832Z,67.5
2022-09-06T10:07:41.774Z,73.12
2022-09-06T10:14:01.728Z,73.12
2022-09-06T10:20:24.724Z,73.12
2022-09-06T10:26:44.733Z,73.12
2022-09-06T10:33:07.733Z,78.75
2022-09-06T10:39:27.785Z,78.75
2022-09-06T10:45:50.724Z,84.38
2022-09-06T10:52:10.723Z,84.38
2022-09-06T11:11:16.759Z,95.62
2022-09-06T11:17:36.717Z,95.62
2022-09-06T11:23:59.819Z,101.25
2022-09-06T11:30:19.724Z,101.25
2022-09-06T11:36:42.798Z,106.88
2022-09-06T11:43:02.774Z,112.5
2022-09-06T11:49:25.888Z,118.12
2022-09-06T11:55:45.756Z,123.75
2022-09-06T12:02:08.964Z,123.75
2022-09-06T12:08:28.811Z,22.5
2022-09-06T12:14:51.740Z,28.12
2022-09-06T12:21:11.882Z,28.12
2022-09-06T12:27:34.766Z,33.75
2022-09-06T12:33:54.721Z,50.62
2022-09-06T12:40:17.764Z,106.88
2022-09-06T12:46:37.825Z,146.25
2022-09-06T12:53:00.723Z,151.88
2022-09-06T12:59:21.046Z,168.75
2022-09-06T13:05:43.729Z,191.25
2022-09-06T13:12:03.762Z,174.38
2022-09-06T13:18:26.760Z,157.5
2022-09-06T13:24:47.385Z,146.25
2022-09-06T13:31:09.852Z,151.88
2022-09-06T13:37:29.803Z,157.5
2022-09-06T13:43:52.734Z,174.38
2022-09-06T13:50:12.761Z,73.12
2022-09-06T13:56:35.774Z,157.5
2022-09-06T14:02:55.778Z,146.25
2022-09-06T14:09:18.764Z,50.62
2022-09-06T14:15:38.770Z,84.38
2022-09-06T14:22:01.760Z,95.62
2022-09-06T14:28:21.724Z,101.25
2022-09-06T14:34:44.728Z,90
2022-09-06T14:41:04.762Z,90
2022-09-06T14:47:27.719Z,84.38
2022-09-06T14:53:47.759Z,90
2022-09-06T15:00:10.728Z,90
2022-09-06T15:06:30.988Z,73.12
2022-09-06T15:12:53.743Z,73.12
2022-09-06T15:19:13.729Z,73.12
2022-09-06T15:41:44.758Z,73.12
2022-09-06T15:48:07.727Z,78.75
2022-09-06T15:54:27.757Z,78.75
2022-09-06T16:00:54.009Z,73.12
2022-09-06T16:07:10.723Z,78.75
2022-09-06T16:13:33.957Z,73.12
2022-09-06T16:19:53.958Z,73.12
2022-09-06T16:26:20.691Z,73.12
2022-09-06T16:32:37.022Z,61.88
2022-09-06T16:38:59.766Z,28.12
2022-09-06T16:45:19.723Z,28.12
2022-09-06T16:51:42.759Z,22.5
2022-09-06T16:58:02.735Z,22.5
2022-09-06T17:04:25.732Z,28.12
2022-09-06T17:10:45.760Z,16.88
2022-09-06T17:17:08.756Z,16.88
2022-09-06T17:23:28.751Z,16.88
2022-09-06T17:29:51.718Z,11.25
2022-09-06T17:36:11.773Z,11.25
2022-09-06T17:42:34.720Z,11.25
2022-09-06T17:48:54.756Z,5.62
2022-09-06T17:55:17.724Z,5.62
2022-09-06T18:01:37.745Z,0
2022-09-06T18:08:00.740Z,0
2022-09-06T18:14:20.976Z,0
2022-09-06T18:20:43.755Z,0
2022-09-06T18:27:03.724Z,0
2022-09-06T18:33:26.987Z,0
2022-09-06T18:39:46.773Z,0
2022-09-06T18:46:09.771Z,0
2022-09-06T18:52:29.746Z,0
2022-09-06T18:58:52.717Z,0
2022-09-06T19:05:12.752Z,0
2022-09-06T19:11:35.725Z,0
2022-09-06T19:17:55.947Z,0
2022-09-06T19:24:18.999Z,0
2022-09-06T19:30:38.739Z,0
2022-09-06T19:37:01.733Z,0
2022-09-06T19:43:21.723Z,0
2022-09-06T19:49:44.893Z,0
2022-09-06T19:56:04.718Z,0
2022-09-06T20:02:27.836Z,0
2022-09-06T20:08:47.721Z,0
2022-09-06T20:15:10.726Z,0
2022-09-06T20:21:30.773Z,0
2022-09-06T20:27:53.721Z,0
2022-09-06T20:34:13.759Z,0
2022-09-06T20:40:36.726Z,0
2022-09-06T20:46:56.762Z,0
2022-09-06T20:53:19.765Z,0
2022-09-06T20:59:39.712Z,0
2022-09-06T21:22:10.766Z,0
2022-09-06T21:28:33.720Z,0
2022-09-06T21:34:53.769Z,0
2022-09-06T21:41:16.723Z,0
2022-09-06T21:47:36.728Z,0
2022-09-06T21:53:59.771Z,0
2022-09-06T22:00:19.720Z,0
2022-09-06T22:23:16.723Z,0
2022-09-06T22:29:36.765Z,0
2022-09-06T22:35:59.733Z,0
2022-09-06T22:42:19.724Z,0
2022-09-06T22:48:42.755Z,0
2022-09-06T22:55:02.733Z,0
2022-09-06T23:01:25.822Z,0
2022-09-06T23:07:45.723Z,0
2022-09-06T23:14:08.744Z,0
2022-09-06T23:20:28.745Z,0
2022-09-06T23:26:51.765Z,0
2022-09-06T23:33:11.775Z,0
2022-09-06T23:39:34.817Z,0
2022-09-06T23:45:54.721Z,0
2022-09-06T23:52:17.751Z,0
2022-09-06T23:58:37.717Z,0
